Time;durP1;ratioP1;P1;durP2;ratioP2;P2;SDS_P1;SDS_P2;PMS_P1;PMS_P2;Temp;Humidity;BMP_temperature;BMP_pressure;BME280_temperature;BME280_humidity;BME280_pressure;Samples;Min_cycle;Max_cycle;Signal;HPM_P1;HPM_P2
2024/03/20 00:00:10;;;;;;;1.48;1.35;;;19.20;56.90;;;;;;5037161;28;20079;-56
2024/03/20 00:02:36;;;;;;;2.08;1.50;;;19.20;56.90;;;;;;5038418;28;20029;-58
2024/03/20 00:05:03;;;;;;;1.60;1.50;;;19.20;56.90;;;;;;5040019;28;20083;-55
2024/03/20 00:07:28;;;;;;;1.90;1.30;;;19.20;56.90;;;;;;5040076;28;20029;-58
2024/03/20 00:09:55;;;;;;;1.30;1.20;;;19.20;56.90;;;;;;5041909;28;20036;-56
2024/03/20 00:12:21;;;;;;;1.50;1.40;;;19.20;56.90;;;;;;5038456;28;20021;-56
2024/03/20 00:14:48;;;;;;;1.33;1.23;;;19.20;56.90;;;;;;5032258;28;20036;-58
2024/03/20 00:17:14;;;;;;;1.30;1.20;;;19.20;56.90;;;;;;5035690;28;20114;-57
2024/03/20 00:19:39;;;;;;;1.48;1.23;;;19.20;56.90;;;;;;5036264;28;20025;-57
2024/03/20 00:22:05;;;;;;;2.08;1.20;;;19.20;57.00;;;;;;5037662;28;20032;-55
2024/03/20 00:24:31;;;;;;;1.38;1.27;;;19.20;56.90;;;;;;5032930;28;20121;-56
2024/03/20 00:26:56;;;;;;;1.70;1.35;;;19.20;56.90;;;;;;5039191;28;20454;-56
2024/03/20 00:29:22;;;;;;;2.22;1.00;;;19.20;56.90;;;;;;5039738;28;20448;-58
2024/03/20 00:31:47;;;;;;;1.30;1.20;;;19.20;56.90;;;;;;5038203;28;20025;-58
2024/03/20 00:34:14;;;;;;;1.50;1.25;;;19.20;56.90;;;;;;5039598;28;20104;-56
2024/03/20 00:36:39;;;;;;;1.60;1.40;;;19.20;56.90;;;;;;5037317;28;20066;-57
2024/03/20 00:39:08;;;;;;;1.75;1.63;;;19.20;57.50;;;;;;5036500;28;20059;-59
2024/03/20 00:41:33;;;;;;;1.98;1.50;;;19.20;56.90;;;;;;5035167;28;21097;-56
2024/03/20 00:43:59;;;;;;;2.10;1.42;;;19.20;56.90;;;;;;5031080;28;20044;-51
2024/03/20 00:46:24;;;;;;;1.33;1.15;;;19.20;56.90;;;;;;5034523;28;20029;-57
2024/03/20 00:48:50;;;;;;;2.05;1.60;;;19.20;56.90;;;;;;5041188;28;20355;-56
2024/03/20 00:51:15;;;;;;;1.67;1.30;;;19.20;56.90;;;;;;5038121;28;20032;-58
2024/03/20 00:53:41;;;;;;;1.50;1.40;;;19.20;56.80;;;;;;5041708;28;20032;-54
2024/03/20 00:56:06;;;;;;;1.75;1.45;;;19.20;56.80;;;;;;5039376;28;20037;-58
2024/03/20 00:58:32;;;;;;;1.90;1.35;;;19.20;56.80;;;;;;5033702;28;20049;-56
2024/03/20 01:00:57;;;;;;;1.40;1.30;;;19.20;56.80;;;;;;5038565;28;20481;-51
2024/03/20 01:03:23;;;;;;;2.45;1.70;;;19.20;56.90;;;;;;5037609;28;20025;-53
2024/03/20 01:05:49;;;;;;;2.35;1.65;;;19.20;56.90;;;;;;5037962;28;20048;-56
2024/03/20 01:08:15;;;;;;;2.20;1.40;;;19.10;56.90;;;;;;5032582;28;20032;-54
2024/03/20 01:10:40;;;;;;;1.70;1.35;;;19.10;56.90;;;;;;5031052;28;20033;-50
2024/03/20 01:13:06;;;;;;;2.05;1.30;;;19.10;57.10;;;;;;5042667;28;20040;-55
2024/03/20 01:15:34;;;;;;;1.95;1.65;;;19.10;57.20;;;;;;5035966;28;20087;-51
2024/03/20 01:17:59;;;;;;;2.13;1.50;;;19.00;57.10;;;;;;5041011;28;20040;-53
2024/03/20 01:20:25;;;;;;;1.55;1.40;;;19.00;57.30;;;;;;5034768;28;20051;-56
2024/03/20 01:22:51;;;;;;;2.65;1.80;;;19.00;57.30;;;;;;5034838;28;20075;-56
2024/03/20 01:25:17;;;;;;;1.70;1.42;;;18.90;57.30;;;;;;5039540;28;20055;-52
2024/03/20 01:27:43;;;;;;;1.70;1.40;;;18.90;57.30;;;;;;5036306;28;20041;-61
2024/03/20 01:30:09;;;;;;;3.08;1.70;;;18.90;57.40;;;;;;5039574;28;20040;-50
2024/03/20 01:32:34;;;;;;;1.98;1.60;;;18.90;57.50;;;;;;5033844;28;20494;-50
2024/03/20 01:34:59;;;;;;;2.00;1.63;;;18.80;57.40;;;;;;5036392;28;20028;-55
2024/03/20 01:37:25;;;;;;;2.65;1.50;;;18.80;58.10;;;;;;5038099;28;20037;-57
2024/03/20 01:39:51;;;;;;;1.40;1.17;;;18.80;57.60;;;;;;5039051;28;20057;-52
2024/03/20 01:42:16;;;;;;;1.90;1.52;;;18.80;57.60;;;;;;5039442;28;20100;-52
2024/03/20 01:44:42;;;;;;;1.95;1.75;;;18.80;57.60;;;;;;5035569;28;20513;-58
2024/03/20 01:47:07;;;;;;;1.60;1.50;;;18.80;57.60;;;;;;5036532;28;20132;-57
2024/03/20 01:49:34;;;;;;;1.98;1.30;;;18.80;57.50;;;;;;5036222;28;20680;-52
2024/03/20 01:52:01;;;;;;;2.08;1.63;;;18.80;57.40;;;;;;5033965;28;20022;-57
2024/03/20 01:54:27;;;;;;;1.40;1.30;;;18.80;57.30;;;;;;5035001;28;20037;-53
2024/03/20 01:56:54;;;;;;;3.53;1.80;;;18.80;57.30;;;;;;5035009;28;20487;-53
2024/03/20 01:59:20;;;;;;;1.45;1.33;;;18.80;57.30;;;;;;5034831;28;20064;-54
2024/03/20 02:01:45;;;;;;;2.00;1.80;;;18.90;57.30;;;;;;5039175;28;20036;-53
2024/03/20 02:04:11;;;;;;;2.05;1.63;;;18.90;57.30;;;;;;5038824;28;20037;-52
2024/03/20 02:06:36;;;;;;;1.63;1.52;;;18.90;57.10;;;;;;5035751;28;20514;-59
2024/03/20 02:09:04;;;;;;;1.85;1.23;;;18.90;57.10;;;;;;5037019;28;20025;-55
2024/03/20 02:11:30;;;;;;;2.00;1.42;;;19.00;57.20;;;;;;5034602;28;20108;-56
2024/03/20 02:13:57;;;;;;;1.83;1.52;;;19.00;57.00;;;;;;5035148;28;20048;-56
2024/03/20 02:16:24;;;;;;;2.25;1.48;;;19.00;57.00;;;;;;5037909;28;20036;-57
2024/03/20 02:18:51;;;;;;;1.88;1.70;;;19.00;56.90;;;;;;5037697;28;20025;-58
2024/03/20 02:21:19;;;;;;;1.55;1.42;;;19.00;56.90;;;;;;5038641;28;20029;-54
2024/03/20 02:23:45;;;;;;;1.40;1.30;;;19.10;56.80;;;;;;5035974;28;20049;-58
2024/03/20 02:26:11;;;;;;;2.03;1.58;;;19.10;56.70;;;;;;5035341;28;20700;-60
2024/03/20 02:28:38;;;;;;;1.92;1.38;;;19.10;56.70;;;;;;5035743;28;20094;-59
2024/03/20 02:31:05;;;;;;;2.13;1.92;;;19.10;56.70;;;;;;5035424;28;20478;-50
2024/03/20 02:33:31;;;;;;;1.80;1.30;;;19.20;56.70;;;;;;5036620;28;20033;-56
2024/03/20 02:35:57;;;;;;;1.38;1.20;;;19.20;56.70;;;;;;5038206;28;20040;-58
2024/03/20 02:38:23;;;;;;;1.80;1.40;;;19.20;56.60;;;;;;5036379;28;20025;-56
2024/03/20 02:40:49;;;;;;;2.13;1.50;;;19.20;56.60;;;;;;5033828;28;20432;-55
2024/03/20 02:43:15;;;;;;;1.67;1.40;;;19.20;56.60;;;;;;5027239;28;20188;-57
2024/03/20 02:45:41;;;;;;;1.88;1.42;;;19.20;56.50;;;;;;5031041;28;20037;-53
2024/03/20 02:48:07;;;;;;;1.33;1.23;;;19.20;56.50;;;;;;5037110;28;20505;-57
2024/03/20 02:50:32;;;;;;;1.92;1.50;;;19.20;56.50;;;;;;5036211;28;20025;-50
2024/03/20 02:53:04;;;;;;;2.08;1.85;;;19.30;56.50;;;;;;5027403;28;20018;-60
2024/03/20 02:55:32;;;;;;;1.92;1.48;;;19.30;56.50;;;;;;5049221;28;20028;-57
2024/03/20 02:57:58;;;;;;;1.77;1.67;;;19.30;56.40;;;;;;5038329;28;20029;-57
2024/03/20 03:00:24;;;;;;;1.70;1.33;;;19.30;56.40;;;;;;5039028;28;20055;-58
2024/03/20 03:02:49;;;;;;;2.03;1.73;;;19.30;56.40;;;;;;5040954;28;20025;-58
2024/03/20 03:05:16;;;;;;;1.77;1.67;;;19.30;56.40;;;;;;5040469;28;20124;-57
2024/03/20 03:07:41;;;;;;;1.55;1.20;;;19.30;56.50;;;;;;5037442;28;20045;-57
2024/03/20 03:10:08;;;;;;;1.50;1.40;;;19.30;56.40;;;;;;5038764;28;20390;-59
2024/03/20 03:12:34;;;;;;;2.08;1.40;;;19.30;56.50;;;;;;5038098;28;20554;-53
2024/03/20 03:14:59;;;;;;;1.92;1.50;;;19.30;56.50;;;;;;5038226;28;20043;-54
2024/03/20 03:17:25;;;;;;;1.52;1.33;;;19.30;56.50;;;;;;5039523;28;20043;-56
2024/03/20 03:19:51;;;;;;;1.95;1.77;;;19.30;56.50;;;;;;5033877;28;20107;-57
2024/03/20 03:22:17;;;;;;;1.85;1.45;;;19.30;56.50;;;;;;5035626;28;20131;-56
2024/03/20 03:24:42;;;;;;;1.85;1.52;;;19.30;56.50;;;;;;5036662;28;20082;-57
2024/03/20 03:27:08;;;;;;;2.25;1.75;;;19.20;56.50;;;;;;5035635;28;20116;-56
2024/03/20 03:29:33;;;;;;;1.60;1.40;;;19.20;56.50;;;;;;5039344;28;20041;-55
2024/03/20 03:31:59;;;;;;;1.90;1.60;;;19.20;56.60;;;;;;5034911;28;20104;-56
2024/03/20 03:34:24;;;;;;;2.40;1.50;;;19.20;56.60;;;;;;5036880;28;20041;-57
2024/03/20 03:36:50;;;;;;;1.45;1.23;;;19.20;56.70;;;;;;5037435;28;20946;-56
2024/03/20 03:39:16;;;;;;;1.83;1.45;;;19.20;56.70;;;;;;5040168;28;20628;-56
2024/03/20 03:41:41;;;;;;;2.40;1.52;;;19.20;56.70;;;;;;5038039;28;20068;-55
2024/03/20 03:44:07;;;;;;;1.63;1.35;;;19.10;56.70;;;;;;5044609;28;20398;-56
2024/03/20 03:46:33;;;;;;;2.45;1.67;;;19.10;56.70;;;;;;5040308;28;20184;-55
2024/03/20 03:48:58;;;;;;;2.83;2.08;;;19.10;56.70;;;;;;5037702;28;20040;-56
2024/03/20 03:51:24;;;;;;;1.80;1.40;;;19.10;56.80;;;;;;5037597;28;20067;-55
2024/03/20 03:53:49;;;;;;;2.78;1.80;;;19.10;56.80;;;;;;5038844;28;20040;-56
2024/03/20 03:56:15;;;;;;;2.95;1.70;;;19.10;56.80;;;;;;5034500;28;20416;-56
2024/03/20 03:58:40;;;;;;;2.28;1.45;;;19.10;56.80;;;;;;5032130;28;20029;-57
2024/03/20 04:01:07;;;;;;;2.72;1.85;;;19.10;56.90;;;;;;5036131;28;20036;-56
2024/03/20 04:03:32;;;;;;;2.20;1.77;;;19.00;56.80;;;;;;5037296;28;20041;-63
2024/03/20 04:06:01;;;;;;;1.90;1.60;;;19.00;56.80;;;;;;5034894;28;20571;-56
2024/03/20 04:08:27;;;;;;;2.42;1.77;;;19.00;56.80;;;;;;5037321;28;20045;-56
2024/03/20 04:10:53;;;;;;;1.83;1.65;;;19.00;56.80;;;;;;5036140;28;20048;-57
2024/03/20 04:13:18;;;;;;;2.13;1.33;;;19.00;56.80;;;;;;5038704;28;20041;-53
2024/03/20 04:15:44;;;;;;;2.20;1.40;;;19.00;56.90;;;;;;5036960;28;20456;-55
2024/03/20 04:18:10;;;;;;;2.20;1.83;;;19.00;56.80;;;;;;5037800;28;20478;-57
2024/03/20 04:20:35;;;;;;;2.05;1.48;;;19.00;56.50;;;;;;5038130;28;20072;-52
2024/03/20 04:23:02;;;;;;;3.17;1.88;;;19.00;56.80;;;;;;5037581;28;20036;-57
2024/03/20 04:25:28;;;;;;;1.70;1.50;;;19.00;56.80;;;;;;5035014;28;20120;-54
2024/03/20 04:27:55;;;;;;;1.92;1.58;;;19.00;56.80;;;;;;5036576;28;20030;-55
2024/03/20 04:30:21;;;;;;;1.83;1.52;;;19.00;56.80;;;;;;5037363;28;20089;-57
2024/03/20 04:32:47;;;;;;;2.30;1.90;;;19.00;56.70;;;;;;5036175;28;20029;-51
2024/03/20 04:35:13;;;;;;;1.70;1.60;;;19.00;56.70;;;;;;5038255;28;20082;-53
2024/03/20 04:37:39;;;;;;;1.63;1.50;;;19.00;56.70;;;;;;5037329;28;20037;-55
2024/03/20 04:40:06;;;;;;;1.77;1.52;;;19.00;56.70;;;;;;5036760;28;20159;-57
2024/03/20 04:42:33;;;;;;;2.55;1.70;;;19.00;56.80;;;;;;5036982;28;20037;-59
2024/03/20 04:44:59;;;;;;;2.13;1.55;;;19.00;56.80;;;;;;5037337;28;20040;-52
2024/03/20 04:47:25;;;;;;;1.75;1.65;;;19.00;56.80;;;;;;5036811;28;20481;-53
2024/03/20 04:49:50;;;;;;;1.70;1.60;;;19.00;57.30;;;;;;5033581;28;20058;-56
2024/03/20 04:52:16;;;;;;;1.73;1.52;;;19.00;56.70;;;;;;5036054;28;20025;-52
2024/03/20 04:54:41;;;;;;;2.03;1.58;;;19.00;56.80;;;;;;5024962;28;20032;-56
2024/03/20 04:57:07;;;;;;;1.73;1.58;;;19.00;56.80;;;;;;5037329;28;20150;-58
2024/03/20 04:59:32;;;;;;;2.28;1.80;;;19.00;56.80;;;;;;5036108;28;20501;-58
2024/03/20 05:01:58;;;;;;;2.00;1.50;;;19.00;56.80;;;;;;5034727;28;20048;-54
2024/03/20 05:04:23;;;;;;;1.65;1.30;;;19.00;57.00;;;;;;5036428;28;20171;-57
2024/03/20 05:06:49;;;;;;;1.75;1.50;;;19.00;56.70;;;;;;5031715;28;20033;-57
2024/03/20 05:09:14;;;;;;;1.63;1.40;;;19.00;56.70;;;;;;5037553;28;20061;-54
2024/03/20 05:11:40;;;;;;;1.33;1.23;;;19.00;56.70;;;;;;5035275;28;20068;-55
2024/03/20 05:14:06;;;;;;;2.92;1.38;;;19.00;56.70;;;;;;5037302;28;20029;-55
2024/03/20 05:16:31;;;;;;;2.40;1.45;;;19.00;56.70;;;;;;5030571;28;20127;-57
2024/03/20 05:18:56;;;;;;;1.98;1.48;;;19.00;56.70;;;;;;5030668;28;20047;-52
2024/03/20 05:21:22;;;;;;;1.83;1.50;;;19.00;56.70;;;;;;5033516;28;20520;-57
2024/03/20 05:23:47;;;;;;;2.10;1.63;;;19.00;56.70;;;;;;5031622;28;20098;-53
2024/03/20 05:26:13;;;;;;;1.88;1.60;;;19.00;56.60;;;;;;5032328;28;20500;-53
2024/03/20 05:28:39;;;;;;;1.38;1.25;;;19.00;56.70;;;;;;5028861;28;20038;-55
2024/03/20 05:31:05;;;;;;;3.17;1.52;;;19.00;56.60;;;;;;5032326;28;20037;-57
2024/03/20 05:33:31;;;;;;;2.47;1.80;;;19.00;56.60;;;;;;5027711;28;20056;-54
2024/03/20 05:35:56;;;;;;;2.20;1.75;;;19.00;56.70;;;;;;5033398;28;21233;-58
2024/03/20 05:38:22;;;;;;;2.10;1.38;;;19.00;56.70;;;;;;5028745;28;20082;-57
2024/03/20 05:40:47;;;;;;;1.40;1.30;;;19.00;56.70;;;;;;5031109;28;20052;-56
2024/03/20 05:43:13;;;;;;;2.33;1.70;;;19.00;56.60;;;;;;5036169;28;20029;-56
2024/03/20 05:45:39;;;;;;;1.50;1.40;;;19.00;56.60;;;;;;5027803;28;20128;-62
2024/03/20 05:48:05;;;;;;;1.90;1.67;;;19.00;56.60;;;;;;5033245;28;20037;-58
2024/03/20 05:50:30;;;;;;;2.47;1.30;;;19.00;56.60;;;;;;5029500;28;20033;-59
2024/03/20 05:52:56;;;;;;;2.22;1.90;;;19.10;56.60;;;;;;5013883;28;20137;-57
2024/03/20 05:55:22;;;;;;;2.15;1.70;;;19.00;56.60;;;;;;5030769;28;20080;-58
2024/03/20 05:57:50;;;;;;;1.67;1.58;;;19.00;56.60;;;;;;5028670;28;20117;-58
2024/03/20 06:00:18;;;;;;;1.20;1.10;;;19.00;56.70;;;;;;5030466;28;20091;-58
2024/03/20 06:02:44;;;;;;;2.00;1.63;;;19.10;56.70;;;;;;5031948;28;20032;-59
2024/03/20 06:05:09;;;;;;;2.28;1.67;;;19.00;56.60;;;;;;5032564;28;20045;-57
2024/03/20 06:07:36;;;;;;;2.05;1.50;;;19.10;56.70;;;;;;5027419;28;20060;-56
2024/03/20 06:10:03;;;;;;;2.33;1.80;;;19.10;56.70;;;;;;5027866;28;20120;-55
2024/03/20 06:12:28;;;;;;;2.50;1.40;;;19.10;56.70;;;;;;5035330;28;20037;-58
2024/03/20 06:14:54;;;;;;;2.55;1.70;;;19.10;56.60;;;;;;5030039;28;20041;-57
2024/03/20 06:17:19;;;;;;;5.20;1.67;;;19.10;56.60;;;;;;5034439;28;20027;-52
2024/03/20 06:19:45;;;;;;;2.97;2.15;;;19.10;56.60;;;;;;5027194;28;20609;-57
2024/03/20 06:22:10;;;;;;;2.42;1.60;;;19.00;56.60;;;;;;5031373;28;20037;-53
2024/03/20 06:24:37;;;;;;;2.47;1.80;;;19.10;56.70;;;;;;5030835;28;20116;-65
2024/03/20 06:27:03;;;;;;;1.70;1.52;;;19.10;56.70;;;;;;5030751;28;20037;-58
2024/03/20 06:29:29;;;;;;;2.33;1.77;;;19.10;56.70;;;;;;5023568;28;20033;-56
2024/03/20 06:31:54;;;;;;;1.55;1.30;;;19.10;56.70;;;;;;5033559;28;20581;-59
2024/03/20 06:34:20;;;;;;;1.50;1.30;;;19.10;56.80;;;;;;5037048;28;20121;-59
2024/03/20 06:36:46;;;;;;;2.00;1.60;;;19.10;56.80;;;;;;5034969;28;20037;-58
2024/03/20 06:39:11;;;;;;;2.05;1.60;;;19.00;56.70;;;;;;5033072;28;20044;-56
2024/03/20 06:41:37;;;;;;;1.58;1.48;;;19.00;56.70;;;;;;5034528;28;20041;-57
2024/03/20 06:44:03;;;;;;;1.40;1.10;;;19.00;56.70;;;;;;5032727;28;20537;-57
2024/03/20 06:46:29;;;;;;;1.52;1.30;;;19.00;56.80;;;;;;5037341;28;20041;-59
2024/03/20 06:48:58;;;;;;;1.80;1.50;;;19.00;56.80;;;;;;5035708;28;20025;-57
2024/03/20 06:51:24;;;;;;;3.17;1.73;;;19.00;56.80;;;;;;5032498;28;20087;-60
2024/03/20 06:53:50;;;;;;;4.85;1.48;;;19.00;56.80;;;;;;5032762;28;20038;-54
2024/03/20 06:56:15;;;;;;;2.55;2.00;;;19.00;56.70;;;;;;5030788;28;20037;-53
2024/03/20 06:58:41;;;;;;;2.38;1.55;;;19.00;56.80;;;;;;5033860;28;20033;-54
2024/03/20 07:01:06;;;;;;;2.00;1.73;;;19.00;57.40;;;;;;5032398;28;20066;-52
2024/03/20 07:03:32;;;;;;;2.38;1.17;;;19.00;56.80;;;;;;5034544;28;20053;-57
2024/03/20 07:05:57;;;;;;;3.15;1.45;;;19.00;56.80;;;;;;5030214;28;20037;-52
2024/03/20 07:08:24;;;;;;;1.77;1.40;;;19.00;56.80;;;;;;5032489;28;20513;-59
2024/03/20 07:10:50;;;;;;;2.10;1.42;;;19.00;56.80;;;;;;5040102;28;20036;-59
2024/03/20 07:13:16;;;;;;;2.33;1.58;;;19.00;56.80;;;;;;5046456;28;20103;-55
2024/03/20 07:15:43;;;;;;;1.90;1.35;;;19.00;56.80;;;;;;5035088;28;20033;-57
2024/03/20 07:18:08;;;;;;;1.83;1.40;;;19.00;56.80;;;;;;5039042;28;20119;-64
2024/03/20 07:20:34;;;;;;;2.20;1.30;;;19.00;56.80;;;;;;5036035;28;20051;-56
2024/03/20 07:23:01;;;;;;;1.63;1.45;;;19.00;56.70;;;;;;5032309;28;20514;-58
2024/03/20 07:25:27;;;;;;;3.25;1.52;;;19.00;56.50;;;;;;5031322;28;20025;-56
2024/03/20 07:27:56;;;;;;;2.15;1.60;;;19.10;55.80;;;;;;5031879;28;20033;-54
2024/03/20 07:30:21;;;;;;;3.28;1.77;;;19.10;56.20;;;;;;5032289;28;20434;-56
2024/03/20 07:32:47;;;;;;;3.85;2.50;;;19.10;56.10;;;;;;5033106;28;20034;-54
2024/03/20 07:35:13;;;;;;;6.32;2.47;;;19.10;55.50;;;;;;5033582;28;21956;-58
2024/03/20 07:37:39;;;;;;;5.85;2.75;;;19.20;55.70;;;;;;5035045;28;20033;-55
2024/03/20 07:40:07;;;;;;;3.28;1.83;;;19.20;55.70;;;;;;5035150;28;20562;-57
2024/03/20 07:42:34;;;;;;;6.20;2.30;;;19.20;55.70;;;;;;5035990;28;20037;-58
2024/03/20 07:44:59;;;;;;;2.40;2.00;;;19.20;55.70;;;;;;5037284;28;20300;-58
2024/03/20 07:47:25;;;;;;;4.60;2.20;;;19.20;55.70;;;;;;5038482;28;20052;-56
2024/03/20 07:49:51;;;;;;;4.00;2.35;;;19.20;55.80;;;;;;5032369;28;20039;-55
2024/03/20 07:52:17;;;;;;;5.22;2.72;;;19.20;55.80;;;;;;5037807;28;20033;-56
2024/03/20 07:54:42;;;;;;;4.15;2.53;;;19.10;55.50;;;;;;5036928;28;20391;-56
2024/03/20 07:57:08;;;;;;;5.43;2.78;;;19.10;55.30;;;;;;5033115;28;20028;-55
2024/03/20 07:59:33;;;;;;;4.63;2.95;;;19.10;54.90;;;;;;5035955;28;20033;-56
2024/03/20 08:01:59;;;;;;;3.30;2.45;;;19.10;54.90;;;;;;5033575;28;20033;-57
2024/03/20 08:04:25;;;;;;;3.80;2.60;;;19.10;54.60;;;;;;5024713;28;20479;-55
2024/03/20 08:06:52;;;;;;;4.90;3.10;;;19.10;54.60;;;;;;5045933;28;20051;-56
2024/03/20 08:09:19;;;;;;;7.18;3.15;;;19.10;54.80;;;;;;5029622;28;20129;-57
2024/03/20 08:11:45;;;;;;;7.03;3.08;;;19.20;54.90;;;;;;5025555;28;20395;-54
2024/03/20 08:14:13;;;;;;;10.48;2.95;;;19.10;55.20;;;;;;5028442;28;20086;-51
2024/03/20 08:16:39;;;;;;;10.32;3.10;;;19.20;55.20;;;;;;5030253;28;20033;-54
2024/03/20 08:19:06;;;;;;;6.13;2.80;;;19.20;55.40;;;;;;5028377;28;20033;-54
2024/03/20 08:21:35;;;;;;;8.40;2.60;;;19.20;55.30;;;;;;5034370;28;20029;-57
2024/03/20 08:24:00;;;;;;;7.15;2.65;;;19.20;55.30;;;;;;5032201;28;20099;-56
2024/03/20 08:26:27;;;;;;;5.43;2.42;;;19.20;55.20;;;;;;5028798;28;20481;-54
2024/03/20 08:28:52;;;;;;;6.25;2.63;;;19.20;55.20;;;;;;5026658;28;20736;-57
2024/03/20 08:31:18;;;;;;;6.18;2.58;;;19.20;55.30;;;;;;5026845;28;20045;-56
2024/03/20 08:33:45;;;;;;;4.30;2.13;;;19.20;55.30;;;;;;5037793;28;20032;-52
2024/03/20 08:36:12;;;;;;;4.03;2.05;;;19.20;55.30;;;;;;5033547;28;20044;-54
2024/03/20 08:38:37;;;;;;;5.03;2.38;;;19.30;55.20;;;;;;5036126;28;20029;-59
2024/03/20 08:41:04;;;;;;;6.35;2.22;;;19.30;55.10;;;;;;5030632;28;20099;-56
2024/03/20 08:43:30;;;;;;;4.55;2.83;;;19.30;55.10;;;;;;5033528;28;20033;-54
2024/03/20 08:45:56;;;;;;;6.00;2.60;;;19.20;55.10;;;;;;5030675;28;20195;-54
2024/03/20 08:48:21;;;;;;;4.55;2.60;;;19.20;55.00;;;;;;5033493;28;20610;-55
2024/03/20 08:50:47;;;;;;;3.80;2.67;;;19.30;55.20;;;;;;5024879;28;20039;-57
2024/03/20 08:53:12;;;;;;;2.53;2.03;;;19.30;55.10;;;;;;5028174;28;20074;-56
2024/03/20 08:55:38;;;;;;;3.65;2.60;;;19.30;54.90;;;;;;5030254;28;20048;-56
2024/03/20 08:58:05;;;;;;;4.25;2.00;;;19.30;54.90;;;;;;5036451;28;20049;-52
2024/03/20 09:00:31;;;;;;;6.35;2.45;;;19.30;54.90;;;;;;5031924;28;20044;-54
2024/03/20 09:02:57;;;;;;;3.08;1.88;;;19.30;54.90;;;;;;5031712;28;20044;-55
2024/03/20 09:05:22;;;;;;;3.13;2.10;;;19.30;54.80;;;;;;5036251;28;20186;-55
2024/03/20 09:07:48;;;;;;;4.82;2.50;;;19.40;54.90;;;;;;5027613;28;20029;-55
2024/03/20 09:10:13;;;;;;;3.20;1.92;;;19.40;54.80;;;;;;5030701;28;20041;-57
2024/03/20 09:12:39;;;;;;;6.68;2.50;;;19.30;54.80;;;;;;5031999;28;20032;-56
2024/03/20 09:15:05;;;;;;;2.67;1.95;;;19.30;54.70;;;;;;5032047;28;20061;-52
2024/03/20 09:17:31;;;;;;;2.95;2.10;;;19.40;54.80;;;;;;5032378;28;20115;-54
2024/03/20 09:19:57;;;;;;;5.13;2.05;;;19.40;55.30;;;;;;5029532;28;20705;-54
2024/03/20 09:22:22;;;;;;;3.13;2.00;;;19.40;54.70;;;;;;5031571;28;20045;-54
2024/03/20 09:24:48;;;;;;;2.80;1.70;;;19.40;54.70;;;;;;5031052;28;20071;-54
2024/03/20 09:27:14;;;;;;;3.75;2.10;;;19.40;54.60;;;;;;5027361;28;20853;-54
2024/03/20 09:29:40;;;;;;;2.42;1.90;;;19.50;54.60;;;;;;5034839;28;20112;-55
2024/03/20 09:32:06;;;;;;;2.88;1.88;;;19.50;54.60;;;;;;5025313;28;20034;-58
2024/03/20 09:34:32;;;;;;;2.15;1.75;;;19.50;54.70;;;;;;5031020;28;20667;-53
2024/03/20 09:36:58;;;;;;;4.97;2.05;;;19.50;55.20;;;;;;4960707;28;20095;-59
2024/03/20 09:39:24;;;;;;;3.17;2.00;;;19.50;54.60;;;;;;5031777;28;20690;-55
2024/03/20 09:41:49;;;;;;;3.72;1.70;;;19.50;54.50;;;;;;5008464;28;20036;-53
2024/03/20 09:44:15;;;;;;;2.10;1.90;;;19.50;54.50;;;;;;5012265;28;20033;-56
2024/03/20 09:46:41;;;;;;;3.28;1.70;;;19.60;54.50;;;;;;5033099;28;20067;-57
2024/03/20 09:49:08;;;;;;;3.95;1.70;;;19.60;54.50;;;;;;5028639;28;20040;-56
2024/03/20 09:51:35;;;;;;;2.45;1.83;;;19.60;54.40;;;;;;5029484;28;20034;-56
2024/03/20 09:54:00;;;;;;;2.88;2.10;;;19.70;54.50;;;;;;5027246;28;20033;-56
2024/03/20 09:56:26;;;;;;;4.13;1.70;;;19.60;54.40;;;;;;5026903;28;20044;-57
2024/03/20 09:58:53;;;;;;;2.60;1.85;;;19.60;54.40;;;;;;5030944;28;20037;-52
2024/03/20 10:01:20;;;;;;;4.28;2.15;;;19.60;54.40;;;;;;5027064;28;20570;-55
2024/03/20 10:03:54;;;;;;;5.38;2.00;;;19.60;54.40;;;;;;5030412;28;20486;-58
2024/03/20 10:06:29;;;;;;;4.55;1.75;;;19.60;54.30;;;;;;5027000;28;20033;-62
2024/03/20 10:08:54;;;;;;;3.58;2.00;;;19.70;54.50;;;;;;5031829;28;20029;-58
2024/03/20 10:11:20;;;;;;;6.03;2.28;;;19.60;54.50;;;;;;5035589;28;20640;-52
2024/03/20 10:13:46;;;;;;;2.15;1.60;;;19.70;54.60;;;;;;5034044;28;20033;-56
2024/03/20 10:16:13;;;;;;;2.20;1.70;;;19.60;54.60;;;;;;5033549;28;20029;-55
2024/03/20 10:18:43;;;;;;;3.95;2.28;;;19.60;54.70;;;;;;5031290;28;20741;-54
2024/03/20 10:21:09;;;;;;;2.95;1.90;;;19.70;54.80;;;;;;5038106;28;20064;-51
2024/03/20 10:23:42;;;;;;;3.00;1.80;;;19.70;54.80;;;;;;5034342;28;20051;-58
2024/03/20 10:26:15;;;;;;;2.20;1.70;;;19.70;54.80;;;;;;5036559;28;20029;-51
2024/03/20 10:28:43;;;;;;;2.60;1.60;;;19.70;54.80;;;;;;5033289;28;20036;-51
2024/03/20 10:31:10;;;;;;;3.05;1.80;;;19.70;54.80;;;;;;5035437;28;20032;-56
2024/03/20 10:33:37;;;;;;;2.17;1.83;;;19.70;54.90;;;;;;5032205;28;20025;-53
2024/03/20 10:36:04;;;;;;;2.25;1.92;;;19.70;55.10;;;;;;5032321;28;20032;-54
2024/03/20 10:38:34;;;;;;;2.47;1.75;;;19.70;55.40;;;;;;5055563;22;20039;-52
2024/03/20 10:41:01;;;;;;;4.38;1.85;;;19.70;56.00;;;;;;5070200;28;20047;-56
2024/03/20 10:43:28;;;;;;;2.47;2.05;;;19.80;56.50;;;;;;5069309;28;20401;-53
2024/03/20 10:45:57;;;;;;;3.00;2.33;;;19.80;56.60;;;;;;5067570;28;20066;-57
2024/03/20 10:48:24;;;;;;;3.47;2.40;;;19.80;57.00;;;;;;5071247;28;20063;-58
2024/03/20 10:50:52;;;;;;;5.30;2.13;;;19.80;57.00;;;;;;5071074;28;20043;-57
2024/03/20 10:53:19;;;;;;;2.63;1.75;;;19.70;56.90;;;;;;5068775;28;20032;-58
2024/03/20 10:55:48;;;;;;;3.63;2.20;;;19.80;57.10;;;;;;5071778;28;20040;-55
2024/03/20 10:58:16;;;;;;;3.63;2.28;;;19.80;57.10;;;;;;5071829;28;20039;-59
2024/03/20 11:00:44;;;;;;;4.25;2.50;;;19.70;57.10;;;;;;5066300;28;20044;-55
2024/03/20 11:03:42;;;;;;;1.85;1.73;;;19.70;57.10;;;;;;5052536;28;20115;-54
2024/03/20 11:06:28;;;;;;;6.95;1.85;;;19.70;57.10;;;;;;5056567;28;20032;-53
2024/03/20 11:09:06;;;;;;;2.85;1.65;;;19.70;57.00;;;;;;5052190;28;20109;-56
2024/03/20 11:11:32;;;;;;;2.47;2.15;;;19.70;56.90;;;;;;5072681;28;20035;-55
2024/03/20 11:14:05;;;;;;;2.92;2.05;;;19.70;56.80;;;;;;5074916;28;20029;-52
2024/03/20 11:16:31;;;;;;;3.72;2.00;;;19.80;56.90;;;;;;5074340;28;20561;-57
2024/03/20 11:18:57;;;;;;;2.00;1.65;;;19.70;56.70;;;;;;5077059;28;20036;-57
2024/03/20 11:21:26;;;;;;;4.55;2.50;;;19.80;56.70;;;;;;5077153;28;20566;-54
2024/03/20 11:23:55;;;;;;;2.75;1.98;;;19.80;56.50;;;;;;5075468;28;20609;-54
2024/03/20 11:26:21;;;;;;;3.50;1.75;;;19.80;56.40;;;;;;5076525;28;20560;-57
2024/03/20 11:28:47;;;;;;;3.83;1.60;;;19.80;56.40;;;;;;5078451;28;20118;-57
2024/03/20 11:31:16;;;;;;;3.47;2.03;;;19.80;56.40;;;;;;5077768;28;20033;-57
2024/03/20 11:33:43;;;;;;;2.88;1.90;;;19.80;56.30;;;;;;5077642;28;20039;-55
2024/03/20 11:36:20;;;;;;;3.45;2.17;;;19.80;56.30;;;;;;5081496;28;20036;-52
2024/03/20 11:38:49;;;;;;;2.05;1.48;;;19.80;56.20;;;;;;5080010;28;20050;-52
2024/03/20 11:41:19;;;;;;;3.35;1.95;;;19.80;56.10;;;;;;5078739;28;20564;-58
2024/03/20 11:43:46;;;;;;;2.20;1.60;;;19.80;56.10;;;;;;5076473;28;20067;-59
2024/03/20 11:46:16;;;;;;;1.80;1.60;;;19.80;56.10;;;;;;5080821;28;20075;-53
2024/03/20 11:48:46;;;;;;;2.38;1.52;;;19.80;56.00;;;;;;5077875;28;20130;-56
2024/03/20 11:51:12;;;;;;;2.13;1.40;;;19.80;56.00;;;;;;5078077;28;23911;-54
2024/03/20 11:53:38;;;;;;;2.17;1.42;;;19.80;55.90;;;;;;5079378;28;20062;-54
2024/03/20 11:56:04;;;;;;;1.80;1.70;;;19.80;55.90;;;;;;5080602;28;20052;-53
2024/03/20 11:58:34;;;;;;;2.65;1.60;;;19.80;55.90;;;;;;5077331;28;20035;-54
2024/03/20 12:01:05;;;;;;;1.63;1.50;;;19.80;55.80;;;;;;5079659;28;20093;-56
2024/03/20 12:03:33;;;;;;;1.73;1.52;;;19.80;55.80;;;;;;5077226;28;20028;-54
2024/03/20 12:06:09;;;;;;;1.33;1.23;;;19.80;55.80;;;;;;5079217;28;20060;-54
2024/03/20 12:08:35;;;;;;;2.28;1.80;;;19.90;55.90;;;;;;5076171;28;20028;-53
2024/03/20 12:11:17;;;;;;;2.78;1.30;;;19.80;55.80;;;;;;5077176;28;20078;-53
2024/03/20 12:13:43;;;;;;;2.92;1.77;;;19.80;55.80;;;;;;5078219;28;20061;-57
2024/03/20 12:16:09;;;;;;;1.63;1.30;;;19.80;55.80;;;;;;5074567;28;20055;-55
2024/03/20 12:18:35;;;;;;;3.15;1.92;;;19.90;55.80;;;;;;5079249;28;20089;-53
2024/03/20 12:21:03;;;;;;;2.63;1.30;;;19.90;55.80;;;;;;5080680;28;20040;-55
2024/03/20 12:23:31;;;;;;;1.67;1.55;;;19.90;55.90;;;;;;5076628;28;20107;-53
2024/03/20 12:25:58;;;;;;;2.55;1.42;;;19.90;55.80;;;;;;5078730;28;20040;-53
2024/03/20 12:28:24;;;;;;;2.58;1.42;;;19.90;55.70;;;;;;5071218;28;20652;-56
2024/03/20 12:30:50;;;;;;;2.80;1.45;;;19.90;55.80;;;;;;5074541;28;20036;-58
2024/03/20 12:33:18;;;;;;;2.90;1.52;;;19.90;55.70;;;;;;5071803;28;20024;-57
2024/03/20 12:35:45;;;;;;;2.92;1.58;;;19.90;55.80;;;;;;5072584;28;20130;-53
2024/03/20 12:38:10;;;;;;;3.72;1.60;;;19.90;55.70;;;;;;5043846;28;20040;-57
2024/03/20 12:40:36;;;;;;;2.88;1.50;;;19.90;55.70;;;;;;5073772;28;20047;-58
2024/03/20 12:43:01;;;;;;;3.05;1.50;;;19.90;55.60;;;;;;5078007;28;20021;-59